createdAt,value
2017-08-12T00:01:54.059Z,100448.57
2017-08-12T00:04:21.460Z,100447.79
2017-08-12T00:06:48.887Z,100448.49
2017-08-12T00:09:16.294Z,100443.89
2017-08-12T00:11:43.703Z,100438.32
2017-08-12T00:14:11.127Z,100435.84
2017-08-12T00:16:38.535Z,100429.24
2017-08-12T00:19:05.927Z,100432.34
2017-08-12T00:21:33.360Z,100438.19
2017-08-12T00:24:00.777Z,100443.19
2017-08-12T00:26:28.190Z,100436.75
2017-08-12T00:28:55.603Z,100439.36
2017-08-12T00:31:23.023Z,100445.31
2017-08-12T00:33:50.416Z,100432.27
2017-08-12T00:36:17.835Z,100432.27
2017-08-12T00:38:45.246Z,100424.56
2017-08-12T00:41:12.673Z,100427.35
2017-08-12T00:43:40.101Z,100429.09
2017-08-12T00:46:07.499Z,100424.56
2017-08-12T00:48:34.899Z,100419.84
2017-08-12T00:51:02.337Z,100418.06
2017-08-12T00:53:29.750Z,100414.91
2017-08-12T00:55:57.158Z,100410.30
2017-08-12T00:58:24.604Z,100410.72
2017-08-12T01:00:51.998Z,100405.05
2017-08-12T01:03:19.426Z,100404.13
2017-08-12T01:05:46.875Z,100395.06
2017-08-12T01:08:14.294Z,100391.59
2017-08-12T01:10:41.711Z,100389.55
2017-08-12T01:13:09.125Z,100380.97
2017-08-12T01:15:36.544Z,100389.04
2017-08-12T01:18:03.955Z,100382.96
2017-08-12T01:20:31.387Z,100384.82
2017-08-12T01:22:58.802Z,100381.22
2017-08-12T01:25:26.200Z,100379.13
2017-08-12T01:27:53.626Z,100382.36
2017-08-12T01:30:21.032Z,100385.02
2017-08-12T01:32:48.440Z,100390.99
2017-08-12T01:35:15.875Z,100390.34
2017-08-12T01:37:43.299Z,100395.95
2017-08-12T01:40:10.719Z,100397.55
2017-08-12T01:42:38.147Z,100401.02
2017-08-12T01:45:05.563Z,100395.93
2017-08-12T01:47:32.976Z,100392.10
2017-08-12T01:50:00.448Z,100387.86
2017-08-12T01:52:27.891Z,100387.01
2017-08-12T01:54:55.312Z,100387.30
2017-08-12T01:57:22.726Z,100391.61
2017-08-12T01:59:50.131Z,100390.70
2017-08-12T02:02:17.572Z,100390.86
2017-08-12T02:04:45.004Z,100393.19
2017-08-12T02:07:12.410Z,100395.59
2017-08-12T02:09:39.827Z,100399.56
2017-08-12T02:12:07.269Z,100401.34
2017-08-12T02:14:34.711Z,100397.41
2017-08-12T02:17:02.118Z,100397.00
2017-08-12T02:19:29.562Z,100387.64
2017-08-12T02:21:57.431Z,100379.23
2017-08-12T02:24:24.835Z,100375.81
2017-08-12T02:26:52.256Z,100371.06
2017-08-12T02:29:19.682Z,100380.97
2017-08-12T02:31:47.091Z,100376.16
2017-08-12T02:34:14.515Z,100379.48
2017-08-12T02:36:41.972Z,100380.27
2017-08-12T02:39:09.354Z,100382.13
2017-08-12T02:41:36.779Z,100382.53
2017-08-12T02:44:04.210Z,100381.91
2017-08-12T02:46:31.638Z,100378.50
2017-08-12T02:48:59.082Z,100369.39
2017-08-12T02:51:26.496Z,100368.48
2017-08-12T02:53:53.892Z,100370.02
2017-08-12T02:56:21.343Z,100364.86
2017-08-12T02:58:48.753Z,100364.91
2017-08-12T03:01:16.155Z,100353.05
2017-08-12T03:03:43.587Z,100356.22
2017-08-12T03:06:11.018Z,100358.89
2017-08-12T03:08:38.445Z,100361.92
2017-08-12T03:11:05.866Z,100367.38
2017-08-12T03:13:33.305Z,100363.48
2017-08-12T03:16:00.711Z,100360.64
2017-08-12T03:18:28.139Z,100365.34
2017-08-12T03:20:55.558Z,100364.58
2017-08-12T03:23:22.994Z,100362.66
2017-08-12T03:25:50.394Z,100373.79
2017-08-12T03:28:17.806Z,100372.83
2017-08-12T03:30:45.193Z,100374.14
2017-08-12T03:33:12.604Z,100374.81
2017-08-12T03:35:40.011Z,100372.80
2017-08-12T03:38:07.424Z,100374.07
2017-08-12T03:40:34.831Z,100369.85
2017-08-12T03:43:02.243Z,100378.01
2017-08-12T03:45:29.651Z,100386.48
2017-08-12T03:47:57.079Z,100380.25
2017-08-12T03:50:24.493Z,100380.83
2017-08-12T03:52:51.912Z,100379.55
2017-08-12T03:55:19.348Z,100380.88
2017-08-12T03:57:46.779Z,100382.33
2017-08-12T04:00:14.171Z,100384.44
2017-08-12T04:02:41.603Z,100380.22
2017-08-12T04:05:09.008Z,100389.27
2017-08-12T04:07:36.408Z,100395.78
2017-08-12T04:10:03.847Z,100393.00
2017-08-12T04:12:31.235Z,100394.64
2017-08-12T04:14:58.712Z,100392.81
2017-08-12T04:17:26.128Z,100395.63
2017-08-12T04:19:53.572Z,100397.19
2017-08-12T04:22:20.971Z,100399.23
2017-08-12T04:24:48.427Z,100398.02
2017-08-12T04:27:15.856Z,100403.46
2017-08-12T04:29:43.267Z,100393.06
2017-08-12T04:32:10.715Z,100394.00
2017-08-12T04:34:38.119Z,100389.97
2017-08-12T04:37:05.544Z,100392.66
2017-08-12T04:39:32.999Z,100393.55
2017-08-12T04:42:00.418Z,100390.52
2017-08-12T04:44:27.826Z,100384.72
2017-08-12T04:46:55.299Z,100383.09
2017-08-12T04:49:22.730Z,100373.85
2017-08-12T04:51:50.124Z,100385.59
2017-08-12T04:54:17.531Z,100393.06
2017-08-12T04:56:44.989Z,100390.48
2017-08-12T04:59:12.416Z,100391.41
2017-08-12T05:01:40.828Z,100384.47
2017-08-12T05:04:08.468Z,100389.77
2017-08-12T05:06:35.879Z,100390.77
2017-08-12T05:09:03.300Z,100388.43
2017-08-12T05:11:30.735Z,100387.41
2017-08-12T05:13:58.144Z,100382.80
2017-08-12T05:16:25.555Z,100387.83
2017-08-12T05:18:52.991Z,100384.72
2017-08-12T05:21:20.398Z,100378.58
2017-08-12T05:23:47.838Z,100381.33
2017-08-12T05:26:15.215Z,100376.89
2017-08-12T05:28:42.616Z,100376.70
2017-08-12T05:31:10.035Z,100374.08
2017-08-12T05:33:37.736Z,100376.25
2017-08-12T05:36:05.175Z,100373.15
2017-08-12T05:38:32.587Z,100366.94
2017-08-12T05:40:59.997Z,100369.28
2017-08-12T05:43:27.399Z,100369.08
2017-08-12T05:45:54.812Z,100366.17
2017-08-12T05:48:22.227Z,100367.25
2017-08-12T05:50:49.627Z,100366.73
2017-08-12T05:53:17.044Z,100373.80
2017-08-12T05:55:44.471Z,100374.86
2017-08-12T05:58:11.882Z,100368.42
2017-08-12T06:00:39.303Z,100380.81
2017-08-12T06:03:06.723Z,100377.86
2017-08-12T06:05:34.847Z,100380.81
2017-08-12T06:08:02.282Z,100384.80
2017-08-12T06:10:29.752Z,100378.87
2017-08-12T06:12:57.139Z,100383.25
2017-08-12T06:15:24.568Z,100383.05
2017-08-12T06:17:51.987Z,100381.26
2017-08-12T06:20:19.369Z,100377.03
2017-08-12T06:22:46.778Z,100382.77
2017-08-12T06:25:14.249Z,100380.97
2017-08-12T06:27:41.689Z,100380.05
2017-08-12T06:30:09.101Z,100380.84
2017-08-12T06:32:36.516Z,100383.87
2017-08-12T06:35:03.947Z,100380.44
2017-08-12T06:37:31.351Z,100387.62
2017-08-12T06:39:58.770Z,100385.56
2017-08-12T06:42:26.222Z,100391.12
2017-08-12T06:44:53.659Z,100394.23
2017-08-12T06:47:21.107Z,100389.28
2017-08-12T06:49:48.976Z,100388.95
2017-08-12T06:52:16.406Z,100385.30
2017-08-12T06:54:43.811Z,100387.31
2017-08-12T06:57:11.212Z,100383.63
2017-08-12T06:59:38.635Z,100382.70
2017-08-12T07:02:06.049Z,100386.39
2017-08-12T07:04:33.448Z,100386.01
2017-08-12T07:07:00.887Z,100387.28
2017-08-12T07:09:28.310Z,100387.07
2017-08-12T07:11:55.715Z,100391.31
2017-08-12T07:14:23.126Z,100391.95
2017-08-12T07:16:50.539Z,100387.15
2017-08-12T07:19:17.941Z,100392.11
2017-08-12T07:21:45.362Z,100387.88
2017-08-12T07:24:12.763Z,100390.41
2017-08-12T07:26:40.167Z,100393.02
2017-08-12T07:29:07.580Z,100388.83
2017-08-12T07:31:35.011Z,100395.34
2017-08-12T07:34:02.427Z,100394.83
2017-08-12T07:36:29.849Z,100398.00
2017-08-12T07:38:57.283Z,100393.73
2017-08-12T07:41:24.682Z,100392.22
2017-08-12T07:43:52.099Z,100392.66
2017-08-12T07:46:19.511Z,100391.80
2017-08-12T07:48:46.925Z,100390.84
2017-08-12T07:51:14.343Z,100399.16
2017-08-12T07:53:41.735Z,100392.94
2017-08-12T07:56:09.151Z,100400.09
2017-08-12T07:58:36.572Z,100398.16
2017-08-12T08:01:03.972Z,100396.67
2017-08-12T08:03:31.388Z,100401.95
2017-08-12T08:05:58.811Z,100400.11
2017-08-12T08:08:26.215Z,100393.17
2017-08-12T08:10:53.663Z,100396.64
2017-08-12T08:13:21.078Z,100398.98
2017-08-12T08:15:48.478Z,100397.77
2017-08-12T08:18:15.897Z,100393.30
2017-08-12T08:20:43.307Z,100401.52
2017-08-12T08:23:10.707Z,100394.94
2017-08-12T08:25:38.099Z,100395.42
2017-08-12T08:28:05.514Z,100398.78
2017-08-12T08:30:32.918Z,100404.28
2017-08-12T08:33:00.359Z,100399.25
2017-08-12T08:35:27.766Z,100405.88
2017-08-12T08:37:55.168Z,100399.11
2017-08-12T08:40:22.563Z,100404.48
2017-08-12T08:42:50.025Z,100400.22
2017-08-12T08:45:17.453Z,100406.87
2017-08-12T08:47:44.862Z,100403.37
2017-08-12T08:50:12.284Z,100403.07
2017-08-12T08:52:39.678Z,100407.19
2017-08-12T08:55:07.085Z,100401.73
2017-08-12T08:57:34.496Z,100414.83
2017-08-12T09:00:01.915Z,100412.14
2017-08-12T09:02:29.315Z,100413.97
2017-08-12T09:04:56.758Z,100416.05
2017-08-12T09:07:24.155Z,100411.02
2017-08-12T09:09:51.555Z,100409.93
2017-08-12T09:12:18.992Z,100409.22
2017-08-12T09:14:46.408Z,100414.58
2017-08-12T09:17:13.810Z,100414.92
2017-08-12T09:19:41.273Z,100410.24
2017-08-12T09:22:08.679Z,100410.94
2017-08-12T09:24:36.080Z,100413.58
2017-08-12T09:27:03.521Z,100413.16
2017-08-12T09:29:30.919Z,100414.73
2017-08-12T09:31:58.320Z,100410.36
2017-08-12T09:34:25.727Z,100421.62
2017-08-12T09:36:53.131Z,100421.42
2017-08-12T09:39:20.526Z,100423.36
2017-08-12T09:41:47.940Z,100419.59
2017-08-12T09:44:15.339Z,100415.84
2017-08-12T09:46:42.735Z,100416.35
2017-08-12T09:49:10.163Z,100411.72
2017-08-12T09:51:37.568Z,100407.81
2017-08-12T09:54:04.963Z,100413.74
2017-08-12T09:56:32.379Z,100415.52
2017-08-12T09:58:59.783Z,100423.19
2017-08-12T10:01:27.184Z,100411.06
2017-08-12T10:03:54.600Z,100419.78
2017-08-12T10:06:21.995Z,100419.48
2017-08-12T10:08:49.403Z,100414.62
2017-08-12T10:11:16.818Z,100420.27
2017-08-12T10:13:44.225Z,100418.77
2017-08-12T10:16:11.619Z,100416.41
2017-08-12T10:18:39.031Z,100419.82
2017-08-12T10:21:06.432Z,100420.21
2017-08-12T10:23:33.832Z,100424.45
2017-08-12T10:26:01.243Z,100422.11
2017-08-12T10:28:28.651Z,100428.20
2017-08-12T10:30:56.047Z,100429.47
2017-08-12T10:33:23.470Z,100423.73
2017-08-12T10:35:50.871Z,100427.77
2017-08-12T10:38:18.280Z,100427.74
2017-08-12T10:40:45.691Z,100427.24
2017-08-12T10:43:13.092Z,100430.85
2017-08-12T10:45:40.488Z,100431.78
2017-08-12T10:48:07.906Z,100435.22
2017-08-12T10:50:35.311Z,100432.13
2017-08-12T10:53:02.698Z,100432.83
2017-08-12T10:55:30.111Z,100437.72
2017-08-12T10:57:57.502Z,100439.66
2017-08-12T11:00:24.899Z,100441.95
2017-08-12T11:02:52.322Z,100439.39
2017-08-12T11:05:19.723Z,100443.05
2017-08-12T11:07:47.138Z,100442.27
2017-08-12T11:10:14.555Z,100452.91
2017-08-12T11:12:41.955Z,100452.56
2017-08-12T11:15:09.359Z,100454.17
2017-08-12T11:17:36.779Z,100454.27
2017-08-12T11:20:04.179Z,100458.22
2017-08-12T11:22:31.572Z,100458.30
2017-08-12T11:24:59.119Z,100460.86
2017-08-12T11:27:26.507Z,100458.00
2017-08-12T11:29:53.904Z,100457.80
2017-08-12T11:32:21.305Z,100458.02
2017-08-12T11:34:48.700Z,100462.82
2017-08-12T11:37:16.091Z,100458.73
2017-08-12T11:39:43.507Z,100461.43
2017-08-12T11:42:10.895Z,100461.26
2017-08-12T11:44:38.291Z,100459.86
2017-08-12T11:47:05.731Z,100461.13
2017-08-12T11:49:33.123Z,100463.91
2017-08-12T11:52:00.517Z,100465.73
2017-08-12T11:54:27.926Z,100469.14
2017-08-12T11:56:55.315Z,100464.77
2017-08-12T11:59:22.711Z,100468.95
2017-08-12T12:01:50.123Z,100472.98
2017-08-12T12:04:17.511Z,100472.30
2017-08-12T12:06:44.915Z,100478.39
2017-08-12T12:09:12.319Z,100478.67
2017-08-12T12:11:39.711Z,100477.52
2017-08-12T12:14:07.141Z,100481.85
2017-08-12T12:16:34.603Z,100478.00
2017-08-12T12:19:02.032Z,100471.95
2017-08-12T12:21:29.417Z,100462.98
2017-08-12T12:23:56.829Z,100475.58
2017-08-12T12:26:24.223Z,100475.66
2017-08-12T12:28:52.464Z,100470.05
2017-08-12T12:31:19.883Z,100477.34
2017-08-12T12:33:47.275Z,100482.20
2017-08-12T12:36:14.707Z,100482.39
2017-08-12T12:38:42.124Z,100486.72
2017-08-12T12:41:09.516Z,100490.91
2017-08-12T12:43:36.908Z,100483.70
2017-08-12T12:46:04.326Z,100489.56
2017-08-12T12:48:31.719Z,100489.02
2017-08-12T12:50:59.115Z,100484.77
2017-08-12T12:53:26.528Z,100483.00
2017-08-12T12:55:53.923Z,100490.48
2017-08-12T12:58:21.319Z,100491.95
2017-08-12T13:00:48.728Z,100489.02
2017-08-12T13:03:16.123Z,100485.39
2017-08-12T13:05:43.515Z,100490.05
2017-08-12T13:08:10.927Z,100488.70
2017-08-12T13:10:38.327Z,100486.94
2017-08-12T13:13:05.733Z,100488.59
2017-08-12T13:15:33.139Z,100487.94
2017-08-12T13:18:00.532Z,100478.59
2017-08-12T13:20:27.931Z,100476.09
2017-08-12T13:22:55.351Z,100469.95
2017-08-12T13:25:22.754Z,100480.19
2017-08-12T13:27:50.147Z,100477.30
2017-08-12T13:30:17.555Z,100479.66
2017-08-12T13:32:44.946Z,100477.47
2017-08-12T13:35:12.343Z,100476.19
2017-08-12T13:37:39.743Z,100466.56
2017-08-12T13:40:07.139Z,100470.76
2017-08-12T13:42:34.536Z,100473.09
2017-08-12T13:45:01.935Z,100469.16
2017-08-12T13:47:29.326Z,100467.65
2017-08-12T13:49:56.714Z,100461.84
2017-08-12T13:52:24.127Z,100465.86
2017-08-12T13:54:51.520Z,100461.36
2017-08-12T13:57:18.912Z,100467.17
2017-08-12T13:59:46.312Z,100468.80
2017-08-12T14:02:13.703Z,100460.08
2017-08-12T14:04:41.095Z,100461.67
2017-08-12T14:07:08.494Z,100459.53
2017-08-12T14:09:35.887Z,100473.92
2017-08-12T14:12:03.279Z,100467.52
2017-08-12T14:14:30.687Z,100466.45
2017-08-12T14:16:58.074Z,100472.06
2017-08-12T14:19:25.464Z,100470.61
2017-08-12T14:21:52.863Z,100479.30
2017-08-12T14:24:20.255Z,100480.41
2017-08-12T14:26:47.647Z,100485.88
2017-08-12T14:29:15.059Z,100483.56
2017-08-12T14:31:42.451Z,100482.70
2017-08-12T14:34:09.839Z,100489.95
2017-08-12T14:36:37.248Z,100482.70
2017-08-12T14:39:04.634Z,100481.52
2017-08-12T14:41:32.027Z,100489.61
2017-08-12T14:43:59.433Z,100483.92
2017-08-12T14:46:26.825Z,100483.45
2017-08-12T14:48:54.215Z,100490.70
2017-08-12T14:51:21.635Z,100495.52
2017-08-12T14:53:49.028Z,100482.98
2017-08-12T14:56:16.428Z,100482.81
2017-08-12T14:58:43.839Z,100488.94
2017-08-12T15:01:11.227Z,100493.63
2017-08-12T15:03:38.628Z,100494.98
2017-08-12T15:06:06.026Z,100498.84
2017-08-12T15:08:33.419Z,100494.77
2017-08-12T15:11:00.811Z,100497.75
2017-08-12T15:13:28.214Z,100500.63
2017-08-12T15:15:55.608Z,100491.73
2017-08-12T15:18:22.999Z,100494.12
2017-08-12T15:20:50.426Z,100500.31
2017-08-12T15:23:17.819Z,100497.23
2017-08-12T15:25:45.210Z,100502.05
2017-08-12T15:28:12.618Z,100505.02
2017-08-12T15:30:40.013Z,100510.50
2017-08-12T15:33:07.414Z,100512.41
2017-08-12T15:35:34.815Z,100507.63
2017-08-12T15:38:02.210Z,100503.84
2017-08-12T15:40:29.606Z,100505.92
2017-08-12T15:42:57.023Z,100501.25
2017-08-12T15:45:24.414Z,100502.91
2017-08-12T15:47:51.804Z,100504.91
2017-08-12T15:50:19.215Z,100510.91
2017-08-12T15:52:46.607Z,100505.42
2017-08-12T15:55:13.999Z,100513.29
2017-08-12T15:57:41.403Z,100512.88
2017-08-12T16:00:08.795Z,100509.55
2017-08-12T16:02:36.182Z,100516.55
2017-08-12T16:05:03.596Z,100512.81
2017-08-12T16:07:30.990Z,100511.60
2017-08-12T16:09:58.386Z,100512.22
2017-08-12T16:12:25.795Z,100511.56
2017-08-12T16:14:53.190Z,100511.42
2017-08-12T16:17:20.576Z,100515.06
2017-08-12T16:19:47.992Z,100511.53
2017-08-12T16:22:15.394Z,100512.33
2017-08-12T16:24:42.785Z,100505.71
2017-08-12T16:27:10.194Z,100511.19
2017-08-12T16:29:37.592Z,100504.95
2017-08-12T16:32:04.988Z,100507.62
2017-08-12T16:34:32.391Z,100510.19
2017-08-12T16:36:59.779Z,100501.49
2017-08-12T16:39:27.167Z,100515.03
2017-08-12T16:41:54.567Z,100512.39
2017-08-12T16:44:21.958Z,100518.80
2017-08-12T16:46:49.343Z,100516.52
2017-08-12T16:49:16.751Z,100519.66
2017-08-12T16:51:44.151Z,100520.08
2017-08-12T16:54:11.535Z,100519.73
2017-08-12T16:56:38.947Z,100521.00
2017-08-12T16:59:06.351Z,100511.80
2017-08-12T17:01:33.740Z,100506.89
2017-08-12T17:04:01.153Z,100506.53
2017-08-12T17:06:28.550Z,100511.36
2017-08-12T17:08:55.943Z,100514.53
2017-08-12T17:11:23.368Z,100512.31
2017-08-12T17:13:50.763Z,100511.75
2017-08-12T17:16:18.156Z,100513.84
2017-08-12T17:18:45.562Z,100510.75
2017-08-12T17:21:12.959Z,100511.53
2017-08-12T17:23:40.349Z,100515.20
2017-08-12T17:26:07.751Z,100508.52
2017-08-12T17:28:35.155Z,100513.52
2017-08-12T17:31:02.548Z,100511.27
2017-08-12T17:33:29.960Z,100509.55
2017-08-12T17:35:57.347Z,100511.22
2017-08-12T17:38:24.738Z,100517.09
2017-08-12T17:40:52.146Z,100520.35
2017-08-12T17:43:19.536Z,100515.27
2017-08-12T17:45:46.926Z,100525.65
2017-08-12T17:48:14.338Z,100530.59
2017-08-12T17:50:41.738Z,100524.50
2017-08-12T17:53:09.136Z,100526.68
2017-08-12T17:55:36.548Z,100524.53
2017-08-12T17:58:03.939Z,100526.78
2017-08-12T18:00:31.338Z,100528.33
2017-08-12T18:02:58.746Z,100525.66
2017-08-12T18:05:26.150Z,100529.90
2017-08-12T18:07:53.538Z,100537.99
2017-08-12T18:10:20.943Z,100534.22
2017-08-12T18:12:48.334Z,100529.48
2017-08-12T18:15:15.726Z,100525.67
2017-08-12T18:17:43.136Z,100526.59
2017-08-12T18:20:10.526Z,100529.89
2017-08-12T18:22:37.917Z,100530.69
2017-08-12T18:25:05.324Z,100523.62
2017-08-12T18:27:32.715Z,100529.86
2017-08-12T18:30:00.119Z,100539.58
2017-08-12T18:32:27.524Z,100543.50
2017-08-12T18:34:54.943Z,100543.63
2017-08-12T18:37:22.335Z,100535.03
2017-08-12T18:39:49.768Z,100539.73
2017-08-12T18:42:17.171Z,100542.05
2017-08-12T18:44:44.560Z,100547.84
2017-08-12T18:47:11.960Z,100543.83
2017-08-12T18:49:39.362Z,100545.50
2017-08-12T18:52:06.763Z,100545.22
2017-08-12T18:54:34.167Z,100548.62
2017-08-12T18:57:01.557Z,100551.73
2017-08-12T18:59:28.947Z,100553.55
2017-08-12T19:01:56.362Z,100556.11
2017-08-12T19:04:23.755Z,100557.45
2017-08-12T19:06:51.147Z,100558.70
2017-08-12T19:09:18.550Z,100558.42
2017-08-12T19:11:45.943Z,100559.36
2017-08-12T19:14:13.336Z,100557.07
2017-08-12T19:16:40.751Z,100562.89
2017-08-12T19:19:08.139Z,100566.98
2017-08-12T19:21:35.528Z,100573.22
2017-08-12T19:24:02.940Z,100576.16
2017-08-12T19:26:30.357Z,100581.52
2017-08-12T19:28:57.727Z,100580.67
2017-08-12T19:31:25.135Z,100586.30
2017-08-12T19:33:52.535Z,100581.20
2017-08-12T19:36:19.923Z,100586.69
2017-08-12T19:38:47.341Z,100590.08
2017-08-12T19:41:14.732Z,100598.00
2017-08-12T19:43:42.123Z,100596.09
2017-08-12T19:46:09.539Z,100598.52
2017-08-12T19:48:36.927Z,100595.20
2017-08-12T19:51:04.318Z,100592.83
2017-08-12T19:53:31.867Z,100589.48
2017-08-12T19:55:59.261Z,100595.56
2017-08-12T19:58:26.656Z,100591.14
2017-08-12T20:00:54.054Z,100592.23
2017-08-12T20:03:21.444Z,100593.20
2017-08-12T20:05:48.871Z,100590.36
2017-08-12T20:08:16.275Z,100594.41
2017-08-12T20:10:43.696Z,100594.31
2017-08-12T20:13:11.122Z,100592.36
2017-08-12T20:15:38.506Z,100594.55
2017-08-12T20:18:05.927Z,100599.11
2017-08-12T20:20:33.340Z,100597.16
2017-08-12T20:23:00.732Z,100599.39
2017-08-12T20:25:28.142Z,100603.67
2017-08-12T20:27:55.546Z,100597.63
2017-08-12T20:30:23.320Z,100594.37
2017-08-12T20:32:50.711Z,100598.60
2017-08-12T20:35:18.128Z,100600.09
2017-08-12T20:37:45.521Z,100607.36
2017-08-12T20:40:12.925Z,100598.73
2017-08-12T20:42:40.591Z,100604.47
2017-08-12T20:45:07.982Z,100611.58
2017-08-12T20:47:35.387Z,100610.88
2017-08-12T20:50:02.806Z,100605.03
2017-08-12T20:52:30.219Z,100600.05
2017-08-12T20:54:57.631Z,100605.53
2017-08-12T20:57:25.046Z,100609.21
2017-08-12T20:59:52.474Z,100608.70
2017-08-12T21:02:19.878Z,100605.16
2017-08-12T21:04:47.273Z,100607.08
2017-08-12T21:07:14.685Z,100608.60
2017-08-12T21:09:42.144Z,100602.80
2017-08-12T21:12:09.524Z,100603.02
2017-08-12T21:14:36.941Z,100601.58
2017-08-12T21:17:04.340Z,100606.89
2017-08-12T21:19:31.773Z,100608.79
2017-08-12T21:21:59.177Z,100608.33
2017-08-12T21:24:26.567Z,100604.70
2017-08-12T21:26:53.962Z,100602.87
2017-08-12T21:29:21.355Z,100607.81
2017-08-12T21:31:48.763Z,100608.98
2017-08-12T21:34:16.151Z,100602.87
2017-08-12T21:36:43.544Z,100604.64
2017-08-12T21:39:10.957Z,100603.02
2017-08-12T21:41:38.351Z,100600.83
2017-08-12T21:44:05.750Z,100600.28
2017-08-12T21:46:33.147Z,100600.33
2017-08-12T21:49:00.547Z,100592.19
2017-08-12T21:51:27.940Z,100591.30
2017-08-12T21:53:55.342Z,100594.93
2017-08-12T21:56:22.731Z,100597.53
2017-08-12T21:58:50.130Z,100598.05
2017-08-12T22:01:17.532Z,100598.09
2017-08-12T22:03:44.922Z,100590.64
2017-08-12T22:06:12.323Z,100596.73
2017-08-12T22:08:39.733Z,100596.33
2017-08-12T22:11:07.130Z,100597.30
2017-08-12T22:13:34.537Z,100589.72
2017-08-12T22:16:01.932Z,100602.56
2017-08-12T22:18:29.324Z,100606.56
2017-08-12T22:20:56.720Z,100605.07
2017-08-12T22:23:24.107Z,100597.80
2017-08-12T22:25:51.503Z,100602.42
2017-08-12T22:28:18.896Z,100603.54
2017-08-12T22:30:46.291Z,100604.14
2017-08-12T22:33:13.684Z,100603.54
2017-08-12T22:35:41.075Z,100599.54
2017-08-12T22:38:08.469Z,100603.20
2017-08-12T22:40:35.872Z,100608.00
2017-08-12T22:43:03.302Z,100603.34
2017-08-12T22:45:30.695Z,100600.59
2017-08-12T22:47:58.084Z,100605.48
2017-08-12T22:50:25.491Z,100597.63
2017-08-12T22:52:52.887Z,100604.64
2017-08-12T22:55:20.278Z,100600.59
2017-08-12T22:57:47.675Z,100606.27
2017-08-12T23:00:15.072Z,100604.55
2017-08-12T23:02:42.483Z,100611.31
2017-08-12T23:05:09.871Z,100606.47
2017-08-12T23:07:37.275Z,100608.20
2017-08-12T23:10:04.667Z,100609.77
2017-08-12T23:12:32.063Z,100608.20
2017-08-12T23:14:59.471Z,100602.70
2017-08-12T23:17:26.862Z,100602.52
2017-08-12T23:19:54.258Z,100604.80
2017-08-12T23:22:21.659Z,100606.94
2017-08-12T23:24:49.060Z,100611.73
2017-08-12T23:27:16.451Z,100609.96
2017-08-12T23:29:43.846Z,100606.33
2017-08-12T23:32:11.235Z,100608.19
2017-08-12T23:34:38.625Z,100603.91
2017-08-12T23:37:06.018Z,100600.61
2017-08-12T23:39:33.410Z,100608.00
2017-08-12T23:42:00.820Z,100605.99
2017-08-12T23:44:28.203Z,100598.14
2017-08-12T23:46:55.599Z,100598.41
2017-08-12T23:49:22.992Z,100598.79
2017-08-12T23:51:50.388Z,100599.34
2017-08-12T23:54:17.780Z,100603.30
2017-08-12T23:56:45.183Z,100600.59
2017-08-12T23:59:12.571Z,100599.07
